Курумоч

Карта отелей и гостиниц, располагающихся рядом с аэропортом Курумоч :

Курумоч
Самара
Самарская область 53° 30' 6.0012" N, 50° 9' 18" E
Код аэродрома ИКАО
UWWW
Код аэродрома RU
УВВВ
Координаты
N53.50167° E050.15500°
Превышение над уровнем моря
145
Основная полоса
15/33
Курс магнитный
148,5/328,5
Длина основной ВПП
3000
Ширина основной ВПП
48
Покрытие основной ВПП
Твёрдое (железобетон)
Освещение ВПП
Постоянное
Тип: 
Аэродром
Класс аэродрома: 
Международный
Принадлежность: 
ГА
Статус: 
Действующий
Сайт: 
http://airport.samara.ru/
E-mail аэродрома: 
info@uwww.aero
Страна: 
Россия
Регион: 
Самарская область
Город: 
Самара
Дополнительная информация: 
Оператор: ОАО «Международный аэропорт «Курумоч».
Погода: 

Авиационная погода в Самаре

Регион: 
Погода METAR: 
UWWW 291030Z 26005MPS 220V290 9999 SCT033 19/05 Q1017 R15/CLRD60 NOSIG RMK QFE751/1001
Время наблюдения
2022-05-29T10:30:00Z
Температура C
19.0
Точка росы
5.0
Направление ветра
260
Скорость ветра (узлы)
10
Метео видимость
6.21
Облачность
SCT
Нижняя граница облачности (футы)
3300
Явления погоды
Условия полета
VFR
Аэропорт подробнее: 
SCT – разбросанная отдельная облачность;


Найти трансфер

С помощью этой формы Вы можете найти трансфер из аэропорта Курумоч в город, аэропорт или вокзал:

Погода в аэропортах:

Авиационная погода в Ханты-Мансийске

Регион: 
Погода METAR: 
USHH 291030Z 24009G15MPS 7000 -TSRA SCT036CB 12/12 Q1005 R24/290055 TEMPO VRB20MPS 1000 TSRA SQ BKN010CB
Время наблюдения
2022-05-29T10:30:00Z
Температура C
12.0
Точка росы
12.0
Направление ветра
240
Скорость ветра (узлы)
17
Метео видимость
4.35
Облачность
SCT
Нижняя граница облачности (футы)
3600
Явления погоды
-TSRA
Условия полета
MVFR
Аэропорт подробнее: 
SCT – разбросанная отдельная облачность;
TSRA - гроза с дождём;

Авиационная погода в Москва - Домодедово

Погода METAR: 
UUDD 291030Z 25006G11MPS 170V270 9999 -SHRA BKN050CB 12/05 Q1012 R32L/290045 NOSIG
Время наблюдения
2022-05-29T10:30:00Z
Температура C
12.0
Точка росы
5.0
Направление ветра
250
Скорость ветра (узлы)
12
Метео видимость
6.21
Облачность
BKN
Нижняя граница облачности (футы)
5000
Явления погоды
-SHRA
Условия полета
VFR
Аэропорт подробнее: 
BKN – значительная (рассеянная, разорванная) облачность;
-SHRA - слабый ливневой дождь;

Авиационная погода в Куопио

Регион: 
Погода METAR: 
EFKU 291020Z AUTO 21003KT 050V140 9999 VCSH FEW033 //////CB 15/10 Q1004
Время наблюдения
2022-05-29T10:20:00Z
Температура C
15.0
Точка росы
10.0
Направление ветра
210
Скорость ветра (узлы)
3
Метео видимость
6.21
Облачность
FEW
Нижняя граница облачности (футы)
3300
Явления погоды
VCSH
Условия полета
VFR
FEW – незначительная облачность;

Авиационная погода в Савонлинна

Регион: 
Погода METAR: 
EFSA 291020Z AUTO 19005KT 160V230 9999 VCSH SCT040 //////CB 18/08 Q1003
Время наблюдения
2022-05-29T10:20:00Z
Температура C
18.0
Точка росы
8.0
Направление ветра
190
Скорость ветра (узлы)
5
Метео видимость
6.21
Облачность
SCT
Нижняя граница облачности (футы)
4000
Явления погоды
VCSH
Условия полета
VFR
SCT – разбросанная отдельная облачность;